createdAt,value
2019-01-30T00:01:14.537Z,100.00
2019-01-30T00:03:47.119Z,100.00
2019-01-30T00:06:19.150Z,100.00
2019-01-30T00:08:51.164Z,100.00
2019-01-30T00:11:25.285Z,100.00
2019-01-30T00:14:00.210Z,100.00
2019-01-30T00:16:37.760Z,100.00
2019-01-30T00:19:14.057Z,100.00
2019-01-30T00:21:52.595Z,100.00
2019-01-30T00:24:26.437Z,100.00
2019-01-30T00:27:01.596Z,100.00
2019-01-30T00:29:37.859Z,100.00
2019-01-30T00:32:20.851Z,100.00
2019-01-30T00:34:58.889Z,100.00
2019-01-30T00:37:33.272Z,100.00
2019-01-30T00:40:09.783Z,100.00
2019-01-30T00:42:43.230Z,100.00
2019-01-30T00:45:20.714Z,100.00
2019-01-30T00:47:56.852Z,100.00
2019-01-30T00:50:31.559Z,100.00
2019-01-30T00:53:08.508Z,100.00
2019-01-30T00:55:42.552Z,100.00
2019-01-30T00:58:24.784Z,100.00
2019-01-30T01:01:02.677Z,100.00
2019-01-30T01:03:36.811Z,100.00
2019-01-30T01:06:11.335Z,100.00
2019-01-30T01:08:49.092Z,100.00
2019-01-30T01:11:23.702Z,100.00
2019-01-30T01:13:59.324Z,100.00
2019-01-30T01:16:37.193Z,100.00
2019-01-30T01:19:14.306Z,100.00
2019-01-30T01:21:52.484Z,100.00
2019-01-30T01:24:27.838Z,100.00
2019-01-30T01:27:02.541Z,100.00
2019-01-30T01:32:31.254Z,100.00
2019-01-30T01:35:07.843Z,100.00
2019-01-30T01:37:42.615Z,100.00
2019-01-30T01:40:17.378Z,100.00
2019-01-30T01:42:51.678Z,100.00
2019-01-30T01:45:30.124Z,100.00
2019-01-30T01:48:05.064Z,100.00
2019-01-30T01:50:38.864Z,100.00
2019-01-30T01:53:13.345Z,100.00
2019-01-30T01:55:49.485Z,100.00
2019-01-30T01:58:25.408Z,100.00
2019-01-30T02:01:01.404Z,100.00
2019-01-30T02:03:37.129Z,100.00
2019-01-30T02:06:18.636Z,100.00
2019-01-30T02:09:01.394Z,100.00
2019-01-30T02:11:36.822Z,100.00
2019-01-30T02:14:13.203Z,100.00
2019-01-30T02:16:46.713Z,100.00
2019-01-30T02:19:20.697Z,100.00
2019-01-30T02:21:55.974Z,100.00
2019-01-30T02:24:29.324Z,100.00
2019-01-30T02:27:03.367Z,100.00
2019-01-30T02:29:37.165Z,100.00
2019-01-30T02:32:12.638Z,100.00
2019-01-30T02:34:48.347Z,100.00
2019-01-30T02:37:25.627Z,100.00
2019-01-30T02:40:05.822Z,100.00
2019-01-30T02:42:40.104Z,100.00
2019-01-30T02:45:19.374Z,100.00
2019-01-30T02:47:54.115Z,100.00
2019-01-30T02:50:29.069Z,100.00
2019-01-30T02:53:05.457Z,100.00
2019-01-30T02:55:56.064Z,100.00
2019-01-30T02:58:28.036Z,100.00
2019-01-30T03:01:00.898Z,100.00
2019-01-30T03:03:32.763Z,100.00
2019-01-30T03:06:04.708Z,100.00
2019-01-30T03:08:36.596Z,100.00
2019-01-30T03:11:08.701Z,100.00
2019-01-30T03:13:40.605Z,100.00
2019-01-30T03:16:12.998Z,100.00
2019-01-30T03:18:44.870Z,100.00
2019-01-30T03:21:16.904Z,100.00
2019-01-30T03:23:48.759Z,100.00
2019-01-30T03:26:20.566Z,100.00
2019-01-30T03:28:52.244Z,100.00
2019-01-30T03:31:24.027Z,100.00
2019-01-30T03:33:55.756Z,100.00
2019-01-30T03:36:27.470Z,100.00
2019-01-30T03:38:59.217Z,100.00
2019-01-30T03:41:31.077Z,100.00
2019-01-30T03:44:03.305Z,100.00
2019-01-30T03:46:34.898Z,100.00
2019-01-30T03:49:07.108Z,100.00
2019-01-30T03:51:38.630Z,100.00
2019-01-30T03:54:10.591Z,100.00
2019-01-30T03:56:42.354Z,100.00
2019-01-30T03:59:13.964Z,100.00
2019-01-30T04:01:45.728Z,100.00
2019-01-30T04:04:17.495Z,100.00
2019-01-30T04:06:49.174Z,100.00
2019-01-30T04:09:20.881Z,100.00
2019-01-30T04:11:52.499Z,100.00
2019-01-30T04:14:24.054Z,100.00
2019-01-30T04:16:57.287Z,100.00
2019-01-30T04:19:28.990Z,100.00
2019-01-30T04:22:00.678Z,100.00
2019-01-30T04:24:32.283Z,100.00
2019-01-30T04:27:04.005Z,100.00
2019-01-30T04:29:36.466Z,100.00
2019-01-30T04:32:08.141Z,100.00
2019-01-30T04:34:39.933Z,100.00
2019-01-30T04:37:11.802Z,100.00
2019-01-30T04:39:43.645Z,100.00
2019-01-30T04:42:15.349Z,100.00
2019-01-30T04:44:47.056Z,100.00
2019-01-30T04:47:37.444Z,100.00
2019-01-30T04:50:09.154Z,100.00
2019-01-30T04:52:40.770Z,100.00
2019-01-30T04:55:13.182Z,100.00
2019-01-30T04:57:45.112Z,100.00
2019-01-30T05:00:20.638Z,100.00
2019-01-30T05:02:52.452Z,100.00
2019-01-30T05:05:24.234Z,100.00
2019-01-30T05:07:56.205Z,100.00
2019-01-30T05:10:27.802Z,100.00
2019-01-30T05:12:59.648Z,100.00
2019-01-30T05:15:32.048Z,100.00
2019-01-30T05:18:03.923Z,100.00
2019-01-30T05:20:35.581Z,100.00
2019-01-30T05:23:07.432Z,100.00
2019-01-30T05:25:39.940Z,100.00
2019-01-30T05:28:12.860Z,100.00
2019-01-30T05:31:04.953Z,100.00
2019-01-30T05:33:36.699Z,100.00
2019-01-30T05:36:08.447Z,100.00
2019-01-30T05:38:40.227Z,100.00
2019-01-30T05:41:12.403Z,100.00
2019-01-30T05:43:44.397Z,100.00
2019-01-30T05:46:18.809Z,100.00
2019-01-30T05:48:50.728Z,100.00
2019-01-30T05:51:22.448Z,100.00
2019-01-30T05:53:54.404Z,100.00
2019-01-30T05:56:26.358Z,100.00
2019-01-30T05:58:58.281Z,100.00
2019-01-30T06:01:30.536Z,100.00
2019-01-30T06:04:03.191Z,100.00
2019-01-30T06:06:35.259Z,100.00
2019-01-30T06:09:09.180Z,100.00
2019-01-30T06:11:59.825Z,100.00
2019-01-30T06:14:31.468Z,100.00
2019-01-30T06:17:03.125Z,100.00
2019-01-30T06:19:34.710Z,100.00
2019-01-30T06:22:07.112Z,100.00
2019-01-30T06:24:38.811Z,100.00
2019-01-30T06:27:10.704Z,100.00
2019-01-30T06:29:42.477Z,100.00
2019-01-30T06:32:21.761Z,100.00
2019-01-30T06:34:48.114Z,100.00
2019-01-30T06:37:20.326Z,100.00
2019-01-30T06:39:52.257Z,100.00
2019-01-30T06:42:24.018Z,100.00
2019-01-30T06:44:55.677Z,100.00
2019-01-30T06:47:27.385Z,100.00
2019-01-30T06:49:59.168Z,100.00
2019-01-30T06:52:31.021Z,100.00
2019-01-30T06:55:02.927Z,100.00
2019-01-30T06:57:35.229Z,100.00
2019-01-30T07:00:17.842Z,100.00
2019-01-30T07:02:49.612Z,100.00
2019-01-30T07:05:21.596Z,100.00
2019-01-30T07:07:53.440Z,100.00
2019-01-30T07:10:30.991Z,100.00
2019-01-30T07:13:02.858Z,100.00
2019-01-30T07:15:35.226Z,100.00
2019-01-30T07:18:06.974Z,100.00
2019-01-30T07:20:38.782Z,100.00
2019-01-30T07:23:10.669Z,100.00
2019-01-30T07:25:42.435Z,100.00
2019-01-30T07:28:15.240Z,100.00
2019-01-30T07:30:47.334Z,100.00
2019-01-30T07:33:19.139Z,100.00
2019-01-30T07:35:51.054Z,100.00
2019-01-30T07:38:23.080Z,100.00
2019-01-30T07:40:55.442Z,100.00
2019-01-30T07:43:27.227Z,100.00
2019-01-30T07:45:59.002Z,100.00
2019-01-30T07:48:30.643Z,100.00
2019-01-30T07:51:02.613Z,100.00
2019-01-30T07:53:34.494Z,100.00
2019-01-30T07:56:06.061Z,91.35
2019-01-30T07:58:37.773Z,79.88
2019-01-30T08:01:09.522Z,64.57
2019-01-30T08:03:41.300Z,56.37
2019-01-30T08:06:13.144Z,53.94
2019-01-30T08:08:45.129Z,51.24
2019-01-30T08:11:17.147Z,49.21
2019-01-30T08:13:49.356Z,49.22
2019-01-30T08:16:21.840Z,50.75
2019-01-30T08:18:53.619Z,53.34
2019-01-30T08:21:27.989Z,59.38
2019-01-30T08:23:59.497Z,62.49
2019-01-30T08:26:32.184Z,69.37
2019-01-30T08:29:04.124Z,70.98
2019-01-30T08:31:36.251Z,75.93
2019-01-30T08:34:08.131Z,79.45
2019-01-30T08:36:39.994Z,82.75
2019-01-30T08:39:11.896Z,85.08
2019-01-30T08:41:43.810Z,86.79
2019-01-30T08:44:15.795Z,88.44
2019-01-30T08:46:47.587Z,89.90
2019-01-30T08:49:19.349Z,90.89
2019-01-30T08:51:51.349Z,93.40
2019-01-30T08:54:23.496Z,92.63
2019-01-30T08:56:55.510Z,93.17
2019-01-30T08:59:27.365Z,98.12
2019-01-30T09:01:59.236Z,98.61
2019-01-30T09:04:31.384Z,97.76
2019-01-30T09:07:03.081Z,97.81
2019-01-30T09:09:35.072Z,98.80
2019-01-30T09:12:07.006Z,99.32
2019-01-30T09:14:38.659Z,99.07
2019-01-30T09:17:10.592Z,98.64
2019-01-30T09:19:42.617Z,98.43
2019-01-30T09:22:14.323Z,99.55
2019-01-30T09:24:46.191Z,98.68
2019-01-30T09:27:17.995Z,98.76
2019-01-30T09:29:49.906Z,99.01
2019-01-30T09:32:21.663Z,99.43
2019-01-30T09:34:53.872Z,99.14
2019-01-30T09:37:27.285Z,98.68
2019-01-30T09:39:59.540Z,98.28
2019-01-30T09:42:34.006Z,97.51
2019-01-30T09:45:06.606Z,97.08
2019-01-30T09:47:38.302Z,96.33
2019-01-30T09:50:13.448Z,95.59
2019-01-30T09:52:45.206Z,94.27
2019-01-30T09:55:17.251Z,93.28
2019-01-30T09:57:49.303Z,92.60
2019-01-30T10:00:33.627Z,90.75
2019-01-30T10:03:05.737Z,89.63
2019-01-30T10:05:37.587Z,88.45
2019-01-30T10:08:10.174Z,88.30
2019-01-30T10:10:42.595Z,87.93
2019-01-30T10:13:14.692Z,88.42
2019-01-30T10:15:48.073Z,87.57
2019-01-30T10:18:19.673Z,86.78
2019-01-30T10:20:52.789Z,86.54
2019-01-30T10:23:24.869Z,87.24
2019-01-30T10:25:56.744Z,87.38
2019-01-30T10:28:28.617Z,86.14
2019-01-30T10:31:00.390Z,85.68
2019-01-30T10:33:32.341Z,86.52
2019-01-30T10:36:04.256Z,86.26
2019-01-30T10:38:36.084Z,86.27
2019-01-30T10:41:08.206Z,86.20
2019-01-30T10:43:40.349Z,86.97
2019-01-30T10:46:12.395Z,88.00
2019-01-30T10:48:44.322Z,88.07
2019-01-30T10:51:16.244Z,88.46
2019-01-30T10:53:48.614Z,89.53
2019-01-30T10:56:20.407Z,87.93
2019-01-30T10:58:52.897Z,87.83
2019-01-30T11:01:24.888Z,88.54
2019-01-30T11:03:57.640Z,87.96
2019-01-30T11:06:29.307Z,89.44
2019-01-30T11:09:01.088Z,89.51
2019-01-30T11:11:36.094Z,89.69
2019-01-30T11:14:08.658Z,89.55
2019-01-30T11:16:40.653Z,89.49
2019-01-30T11:19:12.670Z,89.28
2019-01-30T11:21:44.482Z,89.67
2019-01-30T11:24:16.344Z,90.71
2019-01-30T11:26:48.154Z,91.69
2019-01-30T11:29:19.918Z,92.47
2019-01-30T11:31:52.107Z,91.57
2019-01-30T11:34:24.043Z,91.65
2019-01-30T11:36:55.896Z,93.20
2019-01-30T11:39:27.857Z,93.24
2019-01-30T11:41:59.604Z,94.60
2019-01-30T11:44:32.453Z,97.73
2019-01-30T11:47:04.152Z,97.37
2019-01-30T11:49:36.144Z,100.00
2019-01-30T11:52:07.927Z,100.00
2019-01-30T11:54:39.860Z,99.76
2019-01-30T11:57:11.825Z,100.00
2019-01-30T11:59:43.608Z,100.00
2019-01-30T12:02:15.609Z,99.89
2019-01-30T12:04:47.452Z,100.00
2019-01-30T12:07:19.247Z,100.00
2019-01-30T12:09:50.998Z,100.00
2019-01-30T12:12:22.971Z,100.00
2019-01-30T12:14:56.070Z,100.00
2019-01-30T12:17:27.880Z,100.00
2019-01-30T12:19:59.535Z,100.00
2019-01-30T12:22:31.260Z,100.00
2019-01-30T12:25:03.114Z,100.00
2019-01-30T12:27:35.252Z,100.00
2019-01-30T12:30:14.248Z,100.00
2019-01-30T12:32:46.260Z,100.00
2019-01-30T12:35:18.140Z,100.00
2019-01-30T12:37:49.798Z,100.00
2019-01-30T12:40:22.789Z,100.00
2019-01-30T12:42:54.981Z,100.00
2019-01-30T12:45:35.048Z,100.00
2019-01-30T12:48:10.634Z,100.00
2019-01-30T12:50:41.962Z,100.00
2019-01-30T12:53:15.248Z,100.00
2019-01-30T12:55:47.331Z,100.00
2019-01-30T12:58:19.383Z,100.00
2019-01-30T13:00:51.391Z,100.00
2019-01-30T13:03:23.310Z,100.00
2019-01-30T13:05:55.106Z,100.00
2019-01-30T13:08:27.382Z,100.00
2019-01-30T13:10:58.997Z,100.00
2019-01-30T13:13:32.427Z,100.00
2019-01-30T13:16:05.280Z,100.00
2019-01-30T13:18:38.145Z,100.00
2019-01-30T13:21:10.050Z,100.00
2019-01-30T13:23:42.051Z,100.00
2019-01-30T13:26:14.137Z,100.00
2019-01-30T13:28:46.430Z,100.00
2019-01-30T13:31:18.526Z,100.00
2019-01-30T13:33:51.027Z,100.00
2019-01-30T13:36:22.878Z,100.00
2019-01-30T13:38:55.993Z,100.00
2019-01-30T13:41:28.018Z,100.00
2019-01-30T13:44:04.364Z,100.00
2019-01-30T13:46:36.490Z,100.00
2019-01-30T13:49:23.192Z,100.00
2019-01-30T13:52:02.135Z,100.00
2019-01-30T13:54:46.804Z,100.00
2019-01-30T13:57:33.953Z,100.00
2019-01-30T14:00:29.556Z,100.00
2019-01-30T14:03:21.925Z,100.00
2019-01-30T14:06:07.511Z,100.00
2019-01-30T14:08:44.213Z,100.00
2019-01-30T14:11:17.108Z,100.00
2019-01-30T14:13:52.910Z,100.00
2019-01-30T14:16:25.352Z,100.00
2019-01-30T14:18:58.178Z,100.00
2019-01-30T14:21:31.176Z,100.00
2019-01-30T14:24:03.401Z,100.00
2019-01-30T14:26:35.569Z,100.00
2019-01-30T14:29:08.953Z,100.00
2019-01-30T14:31:40.854Z,100.00
2019-01-30T14:34:13.763Z,100.00
2019-01-30T14:36:46.096Z,100.00
2019-01-30T14:39:19.261Z,100.00
2019-01-30T14:41:51.348Z,100.00
2019-01-30T14:44:24.201Z,100.00
2019-01-30T14:46:56.218Z,100.00
2019-01-30T14:49:30.834Z,100.00
2019-01-30T14:52:02.785Z,100.00
2019-01-30T14:54:35.640Z,100.00
2019-01-30T14:57:07.775Z,100.00
2019-01-30T14:59:39.937Z,100.00
2019-01-30T15:02:12.686Z,100.00
2019-01-30T15:04:46.116Z,100.00
2019-01-30T15:07:28.386Z,100.00
2019-01-30T15:09:51.597Z,100.00
2019-01-30T15:12:23.555Z,100.00
2019-01-30T15:14:55.638Z,100.00
2019-01-30T15:17:27.748Z,100.00
2019-01-30T15:19:59.582Z,100.00
2019-01-30T15:22:31.807Z,100.00
2019-01-30T15:25:04.296Z,100.00
2019-01-30T15:27:37.247Z,100.00
2019-01-30T15:30:13.413Z,100.00
2019-01-30T15:32:46.618Z,100.00
2019-01-30T15:35:18.784Z,100.00
2019-01-30T15:37:52.263Z,100.00
2019-01-30T15:40:27.450Z,100.00
2019-01-30T15:42:59.961Z,100.00
2019-01-30T15:45:32.292Z,100.00
2019-01-30T15:48:07.585Z,100.00
2019-01-30T15:50:41.125Z,100.00
2019-01-30T15:53:17.963Z,100.00
2019-01-30T15:55:49.882Z,100.00
2019-01-30T15:58:22.270Z,100.00
2019-01-30T16:01:30.031Z,100.00
2019-01-30T16:04:06.092Z,100.00
2019-01-30T16:06:37.946Z,100.00
2019-01-30T16:09:11.991Z,100.00
2019-01-30T16:11:44.163Z,100.00
2019-01-30T16:14:18.564Z,100.00
2019-01-30T16:16:50.855Z,100.00
2019-01-30T16:19:22.924Z,100.00
2019-01-30T16:21:56.352Z,100.00
2019-01-30T16:24:28.624Z,100.00
2019-01-30T16:27:00.757Z,100.00
2019-01-30T16:29:33.708Z,100.00
2019-01-30T16:32:06.400Z,100.00
2019-01-30T16:34:38.845Z,100.00
2019-01-30T16:37:10.578Z,100.00
2019-01-30T16:39:43.367Z,100.00
2019-01-30T16:42:16.249Z,100.00
2019-01-30T16:44:48.686Z,100.00
2019-01-30T16:47:21.413Z,100.00
2019-01-30T16:49:55.247Z,100.00
2019-01-30T16:52:28.435Z,100.00
2019-01-30T16:55:00.860Z,100.00
2019-01-30T16:57:32.723Z,100.00
2019-01-30T17:00:05.503Z,100.00
2019-01-30T17:02:37.531Z,100.00
2019-01-30T17:05:12.842Z,100.00
2019-01-30T17:07:46.110Z,100.00
2019-01-30T17:10:18.596Z,100.00
2019-01-30T17:12:51.479Z,100.00
2019-01-30T17:15:28.406Z,100.00
2019-01-30T17:18:00.862Z,100.00
2019-01-30T17:20:36.361Z,100.00
2019-01-30T17:23:08.543Z,100.00
2019-01-30T17:25:41.408Z,100.00
2019-01-30T17:28:14.201Z,100.00
2019-01-30T17:31:00.419Z,100.00
2019-01-30T17:33:32.828Z,100.00
2019-01-30T17:36:05.212Z,100.00
2019-01-30T17:38:38.753Z,100.00
2019-01-30T17:41:10.801Z,100.00
2019-01-30T17:43:43.531Z,100.00
2019-01-30T17:46:16.293Z,100.00
2019-01-30T17:48:48.949Z,100.00
2019-01-30T17:51:21.710Z,100.00
2019-01-30T17:53:54.888Z,100.00
2019-01-30T17:56:26.749Z,100.00
2019-01-30T17:58:59.282Z,100.00
2019-01-30T18:01:32.614Z,100.00
2019-01-30T18:04:04.863Z,100.00
2019-01-30T18:06:37.295Z,100.00
2019-01-30T18:09:11.627Z,100.00
2019-01-30T18:11:44.053Z,100.00
2019-01-30T18:14:19.157Z,100.00
2019-01-30T18:16:51.075Z,100.00
2019-01-30T18:19:22.945Z,100.00
2019-01-30T18:21:55.050Z,100.00
2019-01-30T18:24:27.051Z,100.00
2019-01-30T18:26:59.606Z,100.00
2019-01-30T18:29:31.469Z,100.00
2019-01-30T18:32:03.387Z,100.00
2019-01-30T18:34:37.003Z,100.00
2019-01-30T18:37:08.983Z,100.00
2019-01-30T18:39:42.031Z,100.00
2019-01-30T18:42:14.212Z,100.00
2019-01-30T18:44:47.185Z,100.00
2019-01-30T18:47:19.167Z,100.00
2019-01-30T18:49:51.823Z,100.00
2019-01-30T18:52:24.096Z,100.00
2019-01-30T18:54:56.201Z,100.00
2019-01-30T18:57:28.063Z,100.00
2019-01-30T19:00:00.217Z,100.00
2019-01-30T19:02:32.264Z,100.00
2019-01-30T19:05:04.244Z,100.00
2019-01-30T19:07:36.505Z,100.00
2019-01-30T19:10:13.229Z,100.00
2019-01-30T19:12:45.748Z,100.00
2019-01-30T19:15:21.463Z,100.00
2019-01-30T19:17:53.859Z,100.00
2019-01-30T19:20:38.770Z,100.00
2019-01-30T19:23:11.050Z,100.00
2019-01-30T19:25:44.557Z,100.00
2019-01-30T19:28:17.912Z,100.00
2019-01-30T19:30:53.678Z,100.00
2019-01-30T19:33:25.713Z,100.00
2019-01-30T19:35:58.465Z,100.00
2019-01-30T19:38:32.104Z,100.00
2019-01-30T19:41:05.511Z,100.00
2019-01-30T19:43:37.418Z,100.00
2019-01-30T19:46:11.029Z,100.00
2019-01-30T19:48:43.235Z,100.00
2019-01-30T19:51:17.672Z,100.00
2019-01-30T19:53:49.448Z,100.00
2019-01-30T19:56:22.632Z,100.00
2019-01-30T19:58:55.408Z,100.00
2019-01-30T20:01:35.912Z,100.00
2019-01-30T20:04:02.896Z,100.00
2019-01-30T20:06:35.683Z,100.00
2019-01-30T20:09:17.583Z,100.00
2019-01-30T20:11:52.226Z,100.00
2019-01-30T20:14:25.005Z,100.00
2019-01-30T20:16:58.856Z,100.00
2019-01-30T20:19:32.418Z,100.00
2019-01-30T20:22:04.837Z,100.00
2019-01-30T20:24:37.398Z,100.00
2019-01-30T20:27:11.289Z,100.00
2019-01-30T20:29:44.343Z,100.00
2019-01-30T20:32:17.042Z,100.00
2019-01-30T20:34:49.304Z,100.00
2019-01-30T20:37:32.360Z,100.00
2019-01-30T20:40:05.493Z,100.00
2019-01-30T20:42:40.751Z,100.00
2019-01-30T20:45:14.863Z,100.00
2019-01-30T20:47:50.614Z,100.00
2019-01-30T20:50:27.226Z,100.00
2019-01-30T20:52:59.897Z,100.00
2019-01-30T20:55:35.882Z,100.00
2019-01-30T20:58:08.537Z,100.00
2019-01-30T21:00:41.437Z,100.00
2019-01-30T21:03:15.250Z,100.00
2019-01-30T21:05:47.789Z,100.00
2019-01-30T21:08:22.984Z,100.00
2019-01-30T21:10:56.592Z,100.00
2019-01-30T21:13:29.510Z,100.00
2019-01-30T21:16:03.806Z,100.00
2019-01-30T21:18:38.902Z,100.00
2019-01-30T21:21:11.567Z,100.00
2019-01-30T21:23:43.621Z,100.00
2019-01-30T21:26:18.881Z,100.00
2019-01-30T21:28:51.099Z,100.00
2019-01-30T21:31:23.191Z,100.00
2019-01-30T21:33:55.987Z,100.00
2019-01-30T21:36:29.027Z,100.00
2019-01-30T21:39:01.496Z,100.00
2019-01-30T21:41:33.468Z,100.00
2019-01-30T21:44:05.608Z,100.00
2019-01-30T21:46:37.700Z,100.00
2019-01-30T21:49:09.825Z,100.00
2019-01-30T21:51:42.477Z,100.00
2019-01-30T21:54:15.214Z,100.00
2019-01-30T21:56:49.153Z,100.00
2019-01-30T21:59:21.421Z,100.00
2019-01-30T22:01:53.918Z,100.00
2019-01-30T22:04:27.844Z,100.00
2019-01-30T22:07:00.162Z,100.00
2019-01-30T22:09:33.114Z,100.00
2019-01-30T22:12:05.881Z,100.00
2019-01-30T22:14:38.517Z,100.00
2019-01-30T22:17:11.511Z,100.00
2019-01-30T22:19:43.425Z,100.00
2019-01-30T22:22:15.278Z,100.00
2019-01-30T22:24:48.969Z,100.00
2019-01-30T22:27:21.406Z,100.00
2019-01-30T22:29:53.446Z,100.00
2019-01-30T22:32:25.280Z,100.00
2019-01-30T22:34:57.805Z,100.00
2019-01-30T22:37:29.904Z,100.00
2019-01-30T22:40:02.449Z,100.00
2019-01-30T22:42:34.175Z,100.00
2019-01-30T22:45:08.395Z,100.00
2019-01-30T22:47:40.212Z,100.00
2019-01-30T22:50:14.766Z,100.00
2019-01-30T22:52:46.923Z,100.00
2019-01-30T22:55:23.009Z,100.00
2019-01-30T22:57:54.933Z,100.00
2019-01-30T23:01:04.908Z,100.00
2019-01-30T23:04:19.416Z,100.00
2019-01-30T23:07:45.619Z,100.00
2019-01-30T23:11:07.398Z,100.00
2019-01-30T23:14:06.421Z,100.00
2019-01-30T23:17:54.654Z,100.00
2019-01-30T23:20:40.897Z,100.00
2019-01-30T23:24:19.733Z,100.00
2019-01-30T23:27:16.409Z,100.00
2019-01-30T23:30:33.309Z,100.00
2019-01-30T23:33:53.320Z,100.00
2019-01-30T23:37:11.102Z,100.00
2019-01-30T23:40:24.080Z,100.00
2019-01-30T23:43:42.884Z,100.00
2019-01-30T23:47:23.178Z,100.00
2019-01-30T23:50:52.481Z,100.00
2019-01-30T23:54:16.409Z,100.00
2019-01-30T23:57:51.990Z,100.00
